Terminal Aerodrome Forecast
Issued by NWS

Home | Current Version | Previous Version | Text Only | Print | Product List | Glossary On
Versions: 1 2 3 4 5 6 7 8 9 10 11 12 13 14 15 16 17 18 19 20 21 22 23 24 25 26 27 28 29
000
FTUS41 KOKX 201100
TAFGON
TAF
KGON 201123Z 2012/2112 29005KT P6SM BKN220
     FM201600 23009KT P6SM SCT150 BKN200
     FM202100 22008KT P6SM OVC150
     FM210000 21005KT P6SM SCT035 OVC120
     FM210500 20005KT P6SM -RA SCT025 BKN035=

USA.gov is the U.S. government's official web portal to all federal, state and local government web resources and services.